Terminal Aerodrome Forecast
Issued by NWS

Home | Current Version | Previous Version | Text Only | Print | Product List | Glossary On
Versions: 1 2 3 4 5 6 7 8 9 10 11 12 13 14 15 16 17 18 19 20 21 22 23 24 25 26 27 28 29 30 31 32 33 34 35 36 37 38 39 40
000
FTUS45 KBOU 201734
TAFAPA
TAF
KAPA 201734Z 2018/2118 03005KT P6SM FEW080 SCT120 SCT160
     FM202100 03006KT P6SM SCT080 BKN120
      TEMPO 2021/2101 VRB20G35KT -TSRA BKN070CB
     FM210100 33005KT P6SM SCT080 BKN120
     FM210300 25007KT P6SM SCT120 SCT200
     FM210600 18010KT P6SM SCT120 SCT200
     FM211500 VRB05KT P6SM FEW120 FEW200=

USA.gov is the U.S. government's official web portal to all federal, state and local government web resources and services.